Time;durP1;ratioP1;P1;durP2;ratioP2;P2;SDS_P1;SDS_P2;PMS_P1;PMS_P2;Temp;Humidity;BMP_temperature;BMP_pressure;BME280_temperature;BME280_humidity;BME280_pressure;Samples;Min_cycle;Max_cycle;Signal;HPM_P1;HPM_P2
2023/08/28 00:00:52;;;;;;;1.20;1.10;;;;;;;;;;4980416;28;20030;-81
2023/08/28 00:03:18;;;;;;;1.20;1.10;;;;;;;;;;4980971;28;20034;-81
2023/08/28 00:05:45;;;;;;;1.45;1.27;;;;;;;;;;4982718;28;20042;-81
2023/08/28 00:08:11;;;;;;;2.25;1.50;;;;;;;;;;4991567;28;20045;-81
2023/08/28 00:10:40;;;;;;;1.50;1.40;;;;;;;;;;5001056;28;20022;-82
2023/08/28 00:13:06;;;;;;;1.08;1.08;;;;;;;;;;4983556;28;20026;-81
2023/08/28 00:15:32;;;;;;;1.55;1.42;;;;;;;;;;5001277;28;20053;-81
2023/08/28 00:17:58;;;;;;;1.38;1.27;;;;;;;;;;5002281;28;20060;-82
2023/08/28 00:20:25;;;;;;;1.67;1.48;;;;;;;;;;4983555;28;20393;-82
2023/08/28 00:22:51;;;;;;;1.17;1.15;;;;;;;;;;5001899;28;20022;-82
2023/08/28 00:25:17;;;;;;;1.25;1.15;;;;;;;;;;4984437;28;20030;-82
2023/08/28 00:27:44;;;;;;;1.50;1.10;;;;;;;;;;5002363;28;20030;-82
2023/08/28 00:30:11;;;;;;;1.40;1.23;;;;;;;;;;5003736;28;20054;-81
2023/08/28 00:32:38;;;;;;;1.25;1.10;;;;;;;;;;5009959;28;20082;-82
2023/08/28 00:35:05;;;;;;;2.85;2.03;;;;;;;;;;5010821;28;20251;-81
2023/08/28 00:37:31;;;;;;;1.42;1.33;;;;;;;;;;5010726;28;20100;-81
2023/08/28 00:39:57;;;;;;;1.13;1.13;;;;;;;;;;4998975;28;20062;-82
2023/08/28 00:42:23;;;;;;;1.45;1.30;;;;;;;;;;4986560;28;20037;-82
2023/08/28 00:44:50;;;;;;;1.05;1.05;;;;;;;;;;4985338;28;20037;-81
2023/08/28 00:47:16;;;;;;;0.90;0.90;;;;;;;;;;5002622;28;20065;-81
2023/08/28 00:49:43;;;;;;;1.20;1.20;;;;;;;;;;5002802;28;20029;-81
2023/08/28 00:52:09;;;;;;;0.90;0.90;;;;;;;;;;5003008;28;20050;-81
2023/08/28 00:54:36;;;;;;;1.20;1.10;;;;;;;;;;5001473;28;20023;-82
2023/08/28 00:57:02;;;;;;;0.95;0.95;;;;;;;;;;4984417;28;20027;-82
2023/08/28 00:59:28;;;;;;;0.80;0.80;;;;;;;;;;5001719;28;20129;-81
2023/08/28 01:01:55;;;;;;;1.00;0.90;;;;;;;;;;5001912;28;20053;-81
2023/08/28 01:04:21;;;;;;;1.08;1.00;;;;;;;;;;5007939;28;20030;-79
2023/08/28 01:07:05;;;;;;;1.08;0.80;;;;;;;;;;5022153;28;20033;-80
2023/08/28 01:09:50;;;;;;;1.83;0.98;;;;;;;;;;4993080;28;20107;-81
2023/08/28 01:12:34;;;;;;;1.70;0.90;;;;;;;;;;4980752;28;20057;-81
2023/08/28 01:15:10;;;;;;;1.40;0.95;;;;;;;;;;5005928;28;20022;-81
2023/08/28 01:17:37;;;;;;;1.23;1.17;;;;;;;;;;5003026;28;20029;-83
2023/08/28 01:20:04;;;;;;;1.10;0.90;;;;;;;;;;5005921;28;20026;-83
2023/08/28 01:22:40;;;;;;;1.08;1.05;;;;;;;;;;5007241;28;20039;-82
2023/08/28 01:25:09;;;;;;;1.80;1.10;;;;;;;;;;5000555;28;20050;-82
2023/08/28 01:27:36;;;;;;;1.10;0.90;;;;;;;;;;5001511;28;20030;-82
2023/08/28 01:30:10;;;;;;;0.88;0.88;;;;;;;;;;5002471;28;20101;-82
2023/08/28 01:32:37;;;;;;;0.90;0.90;;;;;;;;;;5001913;28;20034;-83
2023/08/28 01:35:04;;;;;;;1.95;0.93;;;;;;;;;;5002072;28;20026;-82
2023/08/28 01:37:34;;;;;;;1.08;0.90;;;;;;;;;;4999142;28;20030;-83
2023/08/28 01:40:05;;;;;;;1.00;1.00;;;;;;;;;;5002481;28;20037;-83
2023/08/28 01:42:33;;;;;;;1.05;0.95;;;;;;;;;;5002537;28;20025;-82
2023/08/28 01:45:00;;;;;;;1.02;1.00;;;;;;;;;;5001555;28;20042;-81
2023/08/28 01:47:27;;;;;;;0.80;0.80;;;;;;;;;;4984408;28;20033;-83
2023/08/28 01:49:53;;;;;;;1.13;1.10;;;;;;;;;;4984770;28;20027;-83
2023/08/28 01:52:19;;;;;;;1.20;1.10;;;;;;;;;;5002457;28;20489;-82
2023/08/28 01:54:46;;;;;;;1.05;1.02;;;;;;;;;;4984352;28;20027;-82
2023/08/28 01:57:12;;;;;;;1.40;1.27;;;;;;;;;;5002491;28;20030;-83
2023/08/28 01:59:38;;;;;;;2.33;1.50;;;;;;;;;;4983875;28;20033;-82
2023/08/28 02:02:04;;;;;;;1.40;1.30;;;;;;;;;;4980139;28;20361;-82
2023/08/28 02:04:30;;;;;;;1.40;1.30;;;;;;;;;;5004977;28;20018;-81
2023/08/28 02:06:56;;;;;;;1.60;1.50;;;;;;;;;;5016700;28;20026;-81
2023/08/28 02:12:32;;;;;;;1.95;1.70;;;;;;;;;;5015452;28;20030;-82
2023/08/28 02:14:58;;;;;;;1.52;1.40;;;;;;;;;;5016233;28;20231;-82
2023/08/28 02:17:24;;;;;;;1.60;1.50;;;;;;;;;;5017082;28;20062;-82
2023/08/28 02:19:50;;;;;;;3.25;2.10;;;;;;;;;;5015309;28;20023;-83
2023/08/28 02:22:16;;;;;;;1.80;1.70;;;;;;;;;;4983565;28;20034;-83
2023/08/28 02:24:43;;;;;;;2.47;1.80;;;;;;;;;;4999842;28;20019;-80
2023/08/28 02:27:09;;;;;;;2.08;1.92;;;;;;;;;;4982660;28;20090;-82
2023/08/28 02:29:35;;;;;;;3.13;2.13;;;;;;;;;;4999517;28;20022;-81
2023/08/28 02:32:01;;;;;;;2.40;2.20;;;;;;;;;;4981466;28;20030;-81
2023/08/28 02:34:28;;;;;;;1.73;1.63;;;;;;;;;;4999596;28;20023;-81
2023/08/28 02:36:54;;;;;;;2.42;2.00;;;;;;;;;;4992841;28;20049;-81
2023/08/28 02:39:23;;;;;;;1.80;1.70;;;;;;;;;;5017279;28;20041;-81
2023/08/28 02:41:49;;;;;;;2.20;2.00;;;;;;;;;;4991778;28;20033;-80
2023/08/28 02:44:15;;;;;;;1.98;1.88;;;;;;;;;;4993200;28;20050;-80
2023/08/28 02:46:41;;;;;;;2.08;1.88;;;;;;;;;;5010010;28;20026;-81
2023/08/28 02:49:07;;;;;;;2.78;2.08;;;;;;;;;;5004838;28;20022;-80
2023/08/28 02:51:33;;;;;;;2.40;2.03;;;;;;;;;;4993925;28;20038;-82
2023/08/28 02:53:59;;;;;;;2.25;1.67;;;;;;;;;;4996368;28;20030;-82
2023/08/28 02:56:27;;;;;;;2.10;1.80;;;;;;;;;;4996247;28;20041;-82
2023/08/28 02:58:54;;;;;;;1.85;1.75;;;;;;;;;;5007623;28;20033;-80
2023/08/28 03:01:20;;;;;;;2.38;1.77;;;;;;;;;;5002580;28;20026;-82
2023/08/28 03:03:49;;;;;;;1.20;1.20;;;;;;;;;;4999741;28;20022;-81
2023/08/28 03:06:16;;;;;;;3.33;1.65;;;;;;;;;;4988999;28;20108;-83
2023/08/28 03:08:42;;;;;;;3.05;1.73;;;;;;;;;;5017020;28;20029;-82
2023/08/28 03:11:08;;;;;;;1.65;1.55;;;;;;;;;;4999917;28;20034;-81
2023/08/28 03:13:35;;;;;;;2.20;1.70;;;;;;;;;;5006885;28;20501;-84
2023/08/28 03:16:02;;;;;;;2.90;1.63;;;;;;;;;;4994142;28;20039;-80
2023/08/28 03:18:28;;;;;;;2.47;1.25;;;;;;;;;;4995661;28;20138;-81
2023/08/28 03:20:54;;;;;;;1.77;1.60;;;;;;;;;;4979208;28;20029;-81
2023/08/28 03:23:20;;;;;;;1.75;1.50;;;;;;;;;;4981952;28;20557;-81
2023/08/28 03:25:46;;;;;;;1.75;1.65;;;;;;;;;;4995373;28;20385;-81
2023/08/28 03:28:12;;;;;;;1.20;1.20;;;;;;;;;;5009778;28;20042;-80
2023/08/28 03:30:39;;;;;;;1.67;1.30;;;;;;;;;;5011656;28;20022;-81
2023/08/28 03:33:07;;;;;;;1.38;1.35;;;;;;;;;;4992829;28;20023;-81
2023/08/28 03:35:33;;;;;;;1.30;1.30;;;;;;;;;;5014367;28;20018;-81
2023/08/28 03:38:00;;;;;;;1.45;1.35;;;;;;;;;;5027789;28;20030;-81
2023/08/28 03:40:26;;;;;;;1.88;1.77;;;;;;;;;;5004535;28;20053;-80
2023/08/28 03:42:55;;;;;;;1.10;1.10;;;;;;;;;;5015366;28;20440;-80
2023/08/28 03:45:21;;;;;;;1.60;1.30;;;;;;;;;;5009022;28;20038;-79
2023/08/28 03:47:47;;;;;;;1.27;1.25;;;;;;;;;;5000003;28;20053;-80
2023/08/28 03:50:13;;;;;;;1.50;1.40;;;;;;;;;;5010033;28;20029;-81
2023/08/28 03:52:39;;;;;;;1.88;1.48;;;;;;;;;;4993881;28;20029;-82
2023/08/28 03:55:06;;;;;;;1.60;1.50;;;;;;;;;;5002228;28;20023;-84
2023/08/28 03:57:34;;;;;;;1.63;1.52;;;;;;;;;;4985697;28;20097;-83
2023/08/28 04:00:00;;;;;;;1.60;1.50;;;;;;;;;;4984570;28;20027;-82
2023/08/28 04:02:27;;;;;;;2.25;2.00;;;;;;;;;;5001968;28;20023;-82
2023/08/28 04:04:54;;;;;;;4.55;1.98;;;;;;;;;;5008926;28;20030;-82
2023/08/28 04:07:24;;;;;;;2.60;2.08;;;;;;;;;;5007576;28;20058;-82
2023/08/28 04:09:50;;;;;;;2.80;2.40;;;;;;;;;;5006318;28;20030;-83
2023/08/28 04:12:16;;;;;;;2.60;2.40;;;;;;;;;;4991625;28;20035;-82
2023/08/28 04:14:42;;;;;;;2.58;2.38;;;;;;;;;;5009565;28;20033;-81
2023/08/28 04:17:08;;;;;;;2.67;2.10;;;;;;;;;;5023868;28;20022;-81
2023/08/28 04:19:35;;;;;;;2.67;2.47;;;;;;;;;;5001049;28;20044;-81
2023/08/28 04:22:02;;;;;;;3.13;2.60;;;;;;;;;;5022634;28;20021;-80
2023/08/28 04:24:28;;;;;;;4.43;3.42;;;;;;;;;;5009472;28;20030;-80
2023/08/28 04:26:54;;;;;;;3.72;3.00;;;;;;;;;;5010992;28;20053;-80
2023/08/28 04:29:20;;;;;;;6.47;3.30;;;;;;;;;;5027612;28;20034;-80
2023/08/28 04:31:47;;;;;;;5.03;2.85;;;;;;;;;;5020344;28;20504;-81
2023/08/28 04:34:14;;;;;;;4.53;3.50;;;;;;;;;;5009319;28;20177;-82
2023/08/28 04:36:40;;;;;;;3.42;2.88;;;;;;;;;;5012536;28;20026;-82
2023/08/28 04:39:06;;;;;;;4.00;3.42;;;;;;;;;;5034208;28;20026;-82
2023/08/28 04:41:33;;;;;;;4.05;3.70;;;;;;;;;;5004423;28;20015;-83
2023/08/28 04:43:59;;;;;;;5.15;3.80;;;;;;;;;;5011488;28;20038;-82
2023/08/28 04:46:25;;;;;;;5.05;4.35;;;;;;;;;;5010564;28;20054;-81
2023/08/28 04:48:51;;;;;;;4.13;3.75;;;;;;;;;;5022850;28;20038;-83
2023/08/28 04:51:18;;;;;;;4.60;4.15;;;;;;;;;;5008380;28;20039;-82
2023/08/28 04:53:44;;;;;;;5.80;4.75;;;;;;;;;;5009611;28;20034;-83
2023/08/28 04:56:10;;;;;;;6.38;5.40;;;;;;;;;;5009023;28;20057;-83
2023/08/28 04:58:36;;;;;;;8.55;5.47;;;;;;;;;;4990890;28;20027;-83
2023/08/28 05:01:02;;;;;;;6.70;4.95;;;;;;;;;;4990559;28;20057;-83
2023/08/28 05:03:28;;;;;;;7.35;5.30;;;;;;;;;;4999770;28;20071;-82
2023/08/28 05:05:54;;;;;;;5.80;5.20;;;;;;;;;;5009368;28;20022;-81
2023/08/28 05:08:21;;;;;;;6.18;5.18;;;;;;;;;;5016146;28;20030;-82
2023/08/28 05:10:47;;;;;;;7.85;4.93;;;;;;;;;;5024278;28;20017;-82
2023/08/28 05:13:13;;;;;;;5.75;5.03;;;;;;;;;;5004980;28;20053;-82
2023/08/28 05:15:39;;;;;;;5.07;4.57;;;;;;;;;;5001784;28;20029;-81
2023/08/28 05:18:05;;;;;;;7.82;4.75;;;;;;;;;;4988174;28;20030;-82
2023/08/28 05:20:32;;;;;;;4.93;4.28;;;;;;;;;;4990520;28;20026;-82
2023/08/28 05:22:58;;;;;;;5.10;4.60;;;;;;;;;;5006307;28;20035;-83
2023/08/28 05:25:24;;;;;;;6.78;4.30;;;;;;;;;;5006046;28;20046;-84
2023/08/28 05:27:50;;;;;;;7.20;3.90;;;;;;;;;;4991219;28;20026;-83
2023/08/28 05:30:16;;;;;;;4.70;3.72;;;;;;;;;;5015041;28;20026;-80
2023/08/28 05:32:42;;;;;;;4.88;3.58;;;;;;;;;;5001819;28;20015;-78
2023/08/28 05:35:09;;;;;;;4.45;3.28;;;;;;;;;;4993615;28;20023;-82
2023/08/28 05:37:35;;;;;;;6.25;3.88;;;;;;;;;;5006670;28;20015;-79
2023/08/28 05:40:04;;;;;;;3.50;3.20;;;;;;;;;;5001390;28;20007;-79
2023/08/28 05:42:31;;;;;;;5.57;3.97;;;;;;;;;;4999749;28;20022;-84
2023/08/28 05:44:57;;;;;;;4.88;3.35;;;;;;;;;;5004754;28;20054;-81
2023/08/28 05:47:23;;;;;;;5.38;3.38;;;;;;;;;;5016630;28;20037;-81
2023/08/28 05:49:49;;;;;;;4.80;3.95;;;;;;;;;;5018087;28;20142;-82
2023/08/28 05:52:15;;;;;;;4.70;3.63;;;;;;;;;;4999474;28;20041;-84
2023/08/28 05:54:41;;;;;;;4.18;3.78;;;;;;;;;;5004915;28;20038;-84
2023/08/28 05:57:07;;;;;;;7.25;3.80;;;;;;;;;;4986473;28;20085;-84
2023/08/28 05:59:33;;;;;;;5.47;4.05;;;;;;;;;;4986210;28;20022;-84
2023/08/28 06:01:59;;;;;;;5.25;3.90;;;;;;;;;;4985704;28;20026;-84
2023/08/28 06:04:25;;;;;;;6.93;4.10;;;;;;;;;;4986564;28;20041;-84
2023/08/28 06:06:52;;;;;;;5.65;3.30;;;;;;;;;;4995072;28;20026;-84
2023/08/28 06:09:18;;;;;;;3.58;3.10;;;;;;;;;;5003654;28;20116;-83
2023/08/28 06:11:44;;;;;;;3.17;2.65;;;;;;;;;;5004137;28;20045;-83
2023/08/28 06:14:10;;;;;;;2.75;2.15;;;;;;;;;;4997586;28;20030;-85
2023/08/28 06:16:36;;;;;;;3.08;2.50;;;;;;;;;;4984987;28;20374;-85
2023/08/28 06:19:03;;;;;;;2.60;2.40;;;;;;;;;;4986146;28;20065;-85
2023/08/28 06:21:29;;;;;;;1.88;1.77;;;;;;;;;;4986291;28;20077;-86
2023/08/28 06:23:55;;;;;;;1.80;1.58;;;;;;;;;;4986352;28;20030;-83
2023/08/28 06:26:22;;;;;;;1.90;1.80;;;;;;;;;;4988262;28;20054;-80
2023/08/28 06:28:48;;;;;;;1.95;1.85;;;;;;;;;;5016837;28;20030;-79
2023/08/28 06:31:14;;;;;;;1.65;1.55;;;;;;;;;;5000005;28;20014;-81
2023/08/28 06:33:40;;;;;;;1.52;1.42;;;;;;;;;;5006440;28;20031;-84
2023/08/28 06:36:06;;;;;;;1.60;1.50;;;;;;;;;;4990779;28;20048;-84
2023/08/28 06:38:33;;;;;;;1.05;1.05;;;;;;;;;;5005489;28;20052;-85
2023/08/28 06:41:00;;;;;;;1.13;1.10;;;;;;;;;;5025209;28;20101;-85
2023/08/28 06:43:27;;;;;;;1.10;1.10;;;;;;;;;;5024463;28;20360;-85
2023/08/28 06:45:53;;;;;;;0.93;0.93;;;;;;;;;;4992910;28;20092;-85
2023/08/28 06:48:19;;;;;;;1.42;1.33;;;;;;;;;;4986845;28;20159;-84
2023/08/28 06:50:45;;;;;;;1.30;1.30;;;;;;;;;;4986126;28;20115;-84
2023/08/28 06:53:11;;;;;;;1.10;1.10;;;;;;;;;;4985966;28;20022;-84
2023/08/28 06:55:38;;;;;;;1.40;1.30;;;;;;;;;;4984267;28;20037;-83
2023/08/28 06:58:04;;;;;;;1.15;1.13;;;;;;;;;;4983789;28;20069;-82
2023/08/28 07:00:30;;;;;;;1.30;1.20;;;;;;;;;;5000718;28;20045;-84
2023/08/28 07:02:58;;;;;;;1.42;1.33;;;;;;;;;;4982353;28;20093;-83
2023/08/28 07:05:26;;;;;;;1.38;1.27;;;;;;;;;;4999537;28;20412;-83
2023/08/28 07:07:52;;;;;;;1.50;1.40;;;;;;;;;;4992396;28;20090;-83
2023/08/28 07:10:19;;;;;;;1.42;1.33;;;;;;;;;;4993773;28;20102;-80
2023/08/28 07:12:45;;;;;;;1.30;1.20;;;;;;;;;;5016465;28;20022;-84
2023/08/28 07:15:12;;;;;;;0.95;0.95;;;;;;;;;;4998858;28;20014;-83
2023/08/28 07:17:38;;;;;;;1.38;1.27;;;;;;;;;;5016240;28;20025;-82
2023/08/28 07:20:06;;;;;;;1.23;1.10;;;;;;;;;;5016394;28;20019;-81
2023/08/28 07:22:32;;;;;;;1.55;1.45;;;;;;;;;;5012768;28;20029;-82
2023/08/28 07:24:58;;;;;;;1.30;1.20;;;;;;;;;;4989387;28;20094;-83
2023/08/28 07:27:27;;;;;;;1.00;1.00;;;;;;;;;;4998157;28;20034;-82
2023/08/28 07:29:53;;;;;;;0.80;0.80;;;;;;;;;;5016373;28;20037;-79
2023/08/28 07:32:19;;;;;;;1.20;1.20;;;;;;;;;;4990407;28;20034;-82
2023/08/28 07:34:45;;;;;;;1.00;1.00;;;;;;;;;;4986475;28;20026;-79
2023/08/28 07:37:11;;;;;;;1.00;1.00;;;;;;;;;;4986175;28;20125;-83
2023/08/28 07:39:38;;;;;;;1.13;1.13;;;;;;;;;;4996470;28;20030;-81
2023/08/28 07:42:04;;;;;;;1.27;1.17;;;;;;;;;;4991061;28;20037;-82
2023/08/28 07:44:30;;;;;;;1.25;1.15;;;;;;;;;;5007022;28;20089;-82
2023/08/28 07:46:56;;;;;;;1.00;1.00;;;;;;;;;;5001034;28;20042;-81
2023/08/28 07:49:23;;;;;;;0.95;0.95;;;;;;;;;;5017718;28;20026;-84
2023/08/28 07:51:49;;;;;;;0.70;0.70;;;;;;;;;;5021319;28;20101;-83
2023/08/28 07:54:15;;;;;;;0.50;0.50;;;;;;;;;;5021438;28;20026;-82
2023/08/28 07:56:41;;;;;;;1.00;0.60;;;;;;;;;;5019676;28;20019;-83
2023/08/28 07:59:08;;;;;;;0.43;0.43;;;;;;;;;;5006626;28;20097;-84
2023/08/28 08:01:35;;;;;;;0.60;0.60;;;;;;;;;;5025965;28;20033;-83
2023/08/28 08:04:01;;;;;;;0.50;0.50;;;;;;;;;;4987819;28;20058;-83
2023/08/28 08:06:27;;;;;;;0.45;0.45;;;;;;;;;;5006110;28;20022;-80
2023/08/28 08:08:53;;;;;;;0.47;0.47;;;;;;;;;;5019140;28;20026;-82
2023/08/28 08:11:19;;;;;;;0.38;0.38;;;;;;;;;;5019680;28;20014;-81
2023/08/28 08:13:45;;;;;;;0.40;0.40;;;;;;;;;;4999513;28;20030;-82
2023/08/28 08:16:11;;;;;;;0.30;0.30;;;;;;;;;;5004291;28;20057;-81
2023/08/28 08:18:38;;;;;;;0.20;0.20;;;;;;;;;;4986440;28;20456;-81
2023/08/28 08:21:04;;;;;;;0.30;0.30;;;;;;;;;;5002944;28;20023;-81
2023/08/28 08:23:30;;;;;;;0.30;0.30;;;;;;;;;;4986848;28;20469;-81
2023/08/28 08:25:56;;;;;;;0.15;0.15;;;;;;;;;;5003824;28;20033;-81
2023/08/28 08:28:22;;;;;;;0.10;0.10;;;;;;;;;;5002773;28;20070;-80
2023/08/28 08:30:48;;;;;;;0.10;0.10;;;;;;;;;;5002791;28;20027;-80
2023/08/28 08:33:14;;;;;;;0.20;0.20;;;;;;;;;;4985914;28;20045;-82
2023/08/28 08:35:41;;;;;;;0.10;0.10;;;;;;;;;;5000174;28;20022;-83
2023/08/28 08:38:08;;;;;;;0.10;0.10;;;;;;;;;;5000789;28;20077;-83
2023/08/28 08:40:49;;;;;;;0.10;0.10;;;;;;;;;;4985394;28;20033;-84
2023/08/28 08:43:26;;;;;;;0.00;0.00;;;;;;;;;;5001761;28;20384;-83
2023/08/28 08:45:57;;;;;;;0.10;0.10;;;;;;;;;;5001335;28;20170;-83
2023/08/28 08:48:25;;;;;;;0.10;0.10;;;;;;;;;;4984810;28;20030;-82
2023/08/28 08:50:52;;;;;;;0.10;0.10;;;;;;;;;;4985561;28;20027;-83
2023/08/28 08:53:24;;;;;;;0.10;0.10;;;;;;;;;;4984506;28;20127;-83
2023/08/28 08:55:53;;;;;;;0.10;0.10;;;;;;;;;;5001790;28;20080;-83
2023/08/28 08:58:19;;;;;;;0.00;0.00;;;;;;;;;;4984225;28;20089;-82
2023/08/28 09:00:45;;;;;;;0.03;0.03;;;;;;;;;;5003163;28;20026;-81
2023/08/28 09:03:13;;;;;;;0.00;0.00;;;;;;;;;;5003498;28;20026;-83
2023/08/28 09:05:40;;;;;;;0.00;0.00;;;;;;;;;;5002141;28;20038;-82
2023/08/28 09:08:06;;;;;;;0.00;0.00;;;;;;;;;;5015037;28;20025;-82
2023/08/28 09:10:33;;;;;;;0.00;0.00;;;;;;;;;;5008645;28;20029;-83
2023/08/28 09:12:59;;;;;;;0.00;0.00;;;;;;;;;;5001550;28;20429;-83
2023/08/28 09:15:26;;;;;;;0.00;0.00;;;;;;;;;;5002794;28;20445;-83
2023/08/28 09:17:52;;;;;;;0.00;0.00;;;;;;;;;;4984967;28;20049;-81
2023/08/28 09:20:20;;;;;;;0.00;0.00;;;;;;;;;;5002834;28;20125;-82
2023/08/28 09:22:46;;;;;;;0.00;0.00;;;;;;;;;;4988989;28;20034;-83
2023/08/28 09:25:13;;;;;;;0.00;0.00;;;;;;;;;;5013930;28;20046;-82
2023/08/28 09:27:45;;;;;;;0.00;0.00;;;;;;;;;;5015685;28;20047;-82
2023/08/28 09:30:26;;;;;;;0.00;0.00;;;;;;;;;;5004868;28;20355;-82
2023/08/28 09:32:52;;;;;;;0.00;0.00;;;;;;;;;;5007419;28;20062;-82
2023/08/28 09:35:21;;;;;;;0.00;0.00;;;;;;;;;;4991949;28;20500;-79
2023/08/28 09:38:00;;;;;;;0.00;0.00;;;;;;;;;;5020313;28;20090;-83
2023/08/28 09:40:28;;;;;;;0.00;0.00;;;;;;;;;;5032635;28;20087;-83
2023/08/28 09:42:54;;;;;;;0.00;0.00;;;;;;;;;;5033682;28;20026;-82
2023/08/28 09:45:20;;;;;;;0.00;0.00;;;;;;;;;;5014663;28;20125;-84
2023/08/28 09:47:51;;;;;;;0.00;0.00;;;;;;;;;;4998693;28;20038;-82
2023/08/28 09:50:22;;;;;;;0.00;0.00;;;;;;;;;;5015810;28;20037;-82
2023/08/28 09:52:49;;;;;;;0.00;0.00;;;;;;;;;;5006037;28;20038;-84
2023/08/28 09:55:15;;;;;;;0.00;0.00;;;;;;;;;;4984148;28;20497;-83
2023/08/28 09:57:44;;;;;;;0.00;0.00;;;;;;;;;;5001526;28;20026;-83
2023/08/28 10:00:11;;;;;;;0.00;0.00;;;;;;;;;;4984538;28;20463;-82
2023/08/28 10:02:38;;;;;;;0.00;0.00;;;;;;;;;;5001487;28;20069;-84
2023/08/28 10:05:08;;;;;;;0.00;0.00;;;;;;;;;;5006869;28;20057;-83
2023/08/28 10:07:38;;;;;;;0.00;0.00;;;;;;;;;;4988954;28;20162;-83
2023/08/28 10:10:06;;;;;;;0.00;0.00;;;;;;;;;;5021201;28;20052;-82
2023/08/28 10:12:34;;;;;;;0.00;0.00;;;;;;;;;;5021535;28;20022;-82
2023/08/28 10:15:01;;;;;;;0.00;0.00;;;;;;;;;;5004319;28;20473;-82
2023/08/28 10:17:28;;;;;;;0.00;0.00;;;;;;;;;;5008251;28;20022;-84
2023/08/28 10:20:04;;;;;;;0.00;0.00;;;;;;;;;;5020625;28;20014;-82
2023/08/28 10:22:31;;;;;;;0.00;0.00;;;;;;;;;;5013076;28;20030;-81
2023/08/28 10:24:58;;;;;;;0.00;0.00;;;;;;;;;;5015887;28;20034;-82
2023/08/28 10:27:24;;;;;;;0.00;0.00;;;;;;;;;;5016966;28;20023;-81
2023/08/28 10:29:50;;;;;;;0.00;0.00;;;;;;;;;;5008811;23;20046;-82
2023/08/28 10:32:16;;;;;;;0.00;0.00;;;;;;;;;;4985243;28;20030;-80
2023/08/28 10:34:42;;;;;;;0.00;0.00;;;;;;;;;;4990156;28;20027;-80
2023/08/28 10:37:09;;;;;;;0.00;0.00;;;;;;;;;;5003880;28;20038;-81
2023/08/28 10:39:40;;;;;;;0.00;0.00;;;;;;;;;;4992678;28;20066;-80
2023/08/28 10:42:07;;;;;;;0.00;0.00;;;;;;;;;;4992839;28;20074;-80
2023/08/28 10:44:33;;;;;;;0.00;0.00;;;;;;;;;;4999684;28;20058;-81
2023/08/28 10:46:59;;;;;;;0.00;0.00;;;;;;;;;;4997780;28;20023;-81
2023/08/28 10:49:27;;;;;;;0.00;0.00;;;;;;;;;;4998618;28;20118;-81
2023/08/28 10:52:05;;;;;;;0.00;0.00;;;;;;;;;;4998106;28;20034;-81
2023/08/28 10:54:42;;;;;;;0.00;0.00;;;;;;;;;;4975112;28;20031;-81
2023/08/28 10:57:21;;;;;;;0.00;0.00;;;;;;;;;;4962177;28;20028;-81
2023/08/28 10:59:48;;;;;;;0.00;0.00;;;;;;;;;;4962914;28;20027;-81
2023/08/28 11:02:14;;;;;;;0.00;0.00;;;;;;;;;;4963736;28;20024;-81
2023/08/28 11:04:40;;;;;;;0.00;0.00;;;;;;;;;;4964478;28;20560;-80
2023/08/28 11:07:30;;;;;;;0.00;0.00;;;;;;;;;;4992901;28;20035;-83
2023/08/28 11:10:16;;;;;;;0.00;0.00;;;;;;;;;;4980824;28;20030;-81
2023/08/28 11:12:51;;;;;;;0.00;0.00;;;;;;;;;;4984205;28;20486;-82
2023/08/28 11:15:28;;;;;;;0.00;0.00;;;;;;;;;;4982102;28;20054;-83
2023/08/28 11:18:14;;;;;;;0.00;0.00;;;;;;;;;;4982083;28;20031;-81
2023/08/28 11:20:40;;;;;;;0.00;0.00;;;;;;;;;;4982010;28;20039;-82
2023/08/28 11:23:07;;;;;;;0.00;0.00;;;;;;;;;;4992470;28;20033;-80
2023/08/28 11:25:38;;;;;;;0.00;0.00;;;;;;;;;;4993289;28;20027;-82
2023/08/28 11:28:04;;;;;;;0.00;0.00;;;;;;;;;;5007506;28;20030;-83
2023/08/28 11:30:30;;;;;;;0.00;0.00;;;;;;;;;;5005590;28;20047;-82
2023/08/28 11:32:56;;;;;;;0.00;0.00;;;;;;;;;;4983532;28;20023;-82
2023/08/28 11:35:24;;;;;;;0.00;0.00;;;;;;;;;;4974188;28;20085;-82
2023/08/28 11:37:52;;;;;;;0.00;0.00;;;;;;;;;;5003469;28;20065;-82
2023/08/28 11:40:19;;;;;;;0.00;0.00;;;;;;;;;;4998988;28;20022;-82
2023/08/28 11:42:47;;;;;;;0.00;0.00;;;;;;;;;;5013305;28;20029;-80
2023/08/28 11:45:19;;;;;;;0.00;0.00;;;;;;;;;;5016494;28;20115;-81
2023/08/28 11:47:45;;;;;;;0.00;0.00;;;;;;;;;;4994524;28;20031;-83
2023/08/28 11:50:11;;;;;;;0.00;0.00;;;;;;;;;;4991654;28;20027;-83
2023/08/28 11:52:37;;;;;;;0.00;0.00;;;;;;;;;;4995572;28;20039;-83
2023/08/28 11:55:04;;;;;;;0.00;0.00;;;;;;;;;;4990913;28;20033;-83
2023/08/28 11:57:31;;;;;;;0.00;0.00;;;;;;;;;;4988916;28;20034;-84
2023/08/28 11:59:59;;;;;;;0.00;0.00;;;;;;;;;;4990601;28;20007;-82
2023/08/28 12:02:26;;;;;;;0.00;0.00;;;;;;;;;;4997804;28;20082;-84
2023/08/28 12:04:52;;;;;;;0.00;0.00;;;;;;;;;;4997057;28;20023;-83
2023/08/28 12:07:19;;;;;;;0.00;0.00;;;;;;;;;;5007845;28;20035;-80
2023/08/28 12:09:46;;;;;;;0.00;0.00;;;;;;;;;;4980792;28;20047;-81
2023/08/28 12:12:13;;;;;;;0.00;0.00;;;;;;;;;;4979989;28;20035;-81
2023/08/28 12:14:42;;;;;;;0.00;0.00;;;;;;;;;;4984129;28;20061;-82
2023/08/28 12:17:08;;;;;;;0.00;0.00;;;;;;;;;;4999760;28;20030;-82
2023/08/28 12:19:34;;;;;;;0.00;0.00;;;;;;;;;;4999945;28;20014;-82
2023/08/28 12:22:07;;;;;;;0.00;0.00;;;;;;;;;;4999200;28;20042;-82
2023/08/28 12:24:34;;;;;;;0.00;0.00;;;;;;;;;;5014797;28;20042;-81
2023/08/28 12:27:00;;;;;;;0.00;0.00;;;;;;;;;;5013995;28;20655;-79
2023/08/28 12:29:26;;;;;;;0.00;0.00;;;;;;;;;;5014876;28;20046;-82
2023/08/28 12:31:52;;;;;;;0.00;0.00;;;;;;;;;;5009230;28;20095;-79
2023/08/28 12:34:19;;;;;;;0.00;0.00;;;;;;;;;;4991396;28;20035;-78
2023/08/28 12:36:46;;;;;;;0.00;0.00;;;;;;;;;;4990528;28;20489;-79
2023/08/28 12:39:16;;;;;;;0.00;0.00;;;;;;;;;;4989901;28;20030;-77
2023/08/28 12:41:49;;;;;;;0.00;0.00;;;;;;;;;;4986282;28;20046;-78
2023/08/28 12:44:15;;;;;;;0.00;0.00;;;;;;;;;;4972492;28;20054;-78
2023/08/28 12:46:41;;;;;;;0.00;0.00;;;;;;;;;;4973987;28;20020;-79
2023/08/28 12:49:08;;;;;;;0.00;0.00;;;;;;;;;;4969488;28;20087;-79
2023/08/28 12:51:35;;;;;;;0.00;0.00;;;;;;;;;;4966820;28;20148;-80
2023/08/28 12:54:01;;;;;;;0.00;0.00;;;;;;;;;;4971034;28;20027;-80
2023/08/28 12:56:27;;;;;;;0.00;0.00;;;;;;;;;;4974128;28;20035;-79
2023/08/28 12:58:53;;;;;;;0.00;0.00;;;;;;;;;;4989386;28;20050;-79
2023/08/28 13:01:20;;;;;;;0.00;0.00;;;;;;;;;;4993106;28;20038;-79
2023/08/28 13:03:46;;;;;;;0.00;0.00;;;;;;;;;;4992314;28;20027;-80
2023/08/28 13:06:12;;;;;;;0.00;0.00;;;;;;;;;;4990992;28;20026;-78
2023/08/28 13:08:38;;;;;;;0.00;0.00;;;;;;;;;;5002720;28;20042;-77
2023/08/28 13:11:05;;;;;;;0.00;0.00;;;;;;;;;;4987474;28;20035;-78
2023/08/28 13:13:31;;;;;;;0.00;0.00;;;;;;;;;;4987124;28;20019;-79
2023/08/28 13:15:57;;;;;;;0.00;0.00;;;;;;;;;;4972033;28;20028;-80
2023/08/28 13:18:23;;;;;;;0.00;0.00;;;;;;;;;;4974041;28;20502;-79
2023/08/28 13:20:49;;;;;;;0.00;0.00;;;;;;;;;;4974810;28;20026;-81
2023/08/28 13:23:15;;;;;;;0.00;0.00;;;;;;;;;;4972260;28;20118;-79
2023/08/28 13:25:42;;;;;;;0.00;0.00;;;;;;;;;;4975125;28;20038;-79
2023/08/28 13:28:08;;;;;;;0.00;0.00;;;;;;;;;;4972960;28;20031;-79
2023/08/28 13:30:34;;;;;;;0.00;0.00;;;;;;;;;;4975639;28;20034;-78
2023/08/28 13:33:04;;;;;;;0.00;0.00;;;;;;;;;;4989944;28;20042;-79
2023/08/28 13:35:30;;;;;;;0.00;0.00;;;;;;;;;;4992019;28;20039;-79
2023/08/28 13:37:56;;;;;;;0.00;0.00;;;;;;;;;;4998393;28;20045;-79
2023/08/28 13:40:23;;;;;;;0.00;0.00;;;;;;;;;;4998225;28;20022;-78
2023/08/28 13:42:49;;;;;;;0.00;0.00;;;;;;;;;;4997414;28;20041;-80
2023/08/28 13:45:15;;;;;;;0.00;0.00;;;;;;;;;;5004037;28;20026;-79
2023/08/28 13:47:41;;;;;;;0.00;0.00;;;;;;;;;;4987218;28;20037;-78
2023/08/28 13:50:08;;;;;;;0.00;0.00;;;;;;;;;;4996713;28;20031;-81
2023/08/28 13:52:34;;;;;;;0.00;0.00;;;;;;;;;;4990385;28;20035;-80
2023/08/28 13:55:04;;;;;;;0.00;0.00;;;;;;;;;;4975786;28;20031;-81
2023/08/28 13:57:43;;;;;;;0.00;0.00;;;;;;;;;;4991446;28;20081;-80
2023/08/28 14:00:12;;;;;;;0.00;0.00;;;;;;;;;;4968108;28;20047;-80
2023/08/28 14:02:39;;;;;;;0.00;0.00;;;;;;;;;;4966304;28;20028;-80
2023/08/28 14:05:08;;;;;;;0.00;0.00;;;;;;;;;;4967127;29;20030;-80
2023/08/28 14:07:34;;;;;;;0.00;0.00;;;;;;;;;;5002316;28;20042;-80
2023/08/28 14:10:00;;;;;;;0.00;0.00;;;;;;;;;;4970020;28;20051;-79
2023/08/28 14:12:27;;;;;;;0.00;0.00;;;;;;;;;;4984567;28;20051;-79
2023/08/28 14:14:53;;;;;;;0.00;0.00;;;;;;;;;;4985055;28;20478;-82
2023/08/28 14:17:19;;;;;;;0.00;0.00;;;;;;;;;;4992618;28;20035;-81
2023/08/28 14:19:45;;;;;;;0.00;0.00;;;;;;;;;;4974479;28;20042;-81
2023/08/28 14:22:11;;;;;;;0.00;0.00;;;;;;;;;;4969419;29;20034;-79
2023/08/28 14:24:37;;;;;;;0.00;0.00;;;;;;;;;;4971330;28;20024;-78
2023/08/28 14:27:04;;;;;;;0.00;0.00;;;;;;;;;;4985288;28;20437;-80
2023/08/28 14:29:30;;;;;;;0.00;0.00;;;;;;;;;;4984857;28;20038;-81
2023/08/28 14:31:56;;;;;;;0.00;0.00;;;;;;;;;;4987081;28;20023;-82
2023/08/28 14:34:22;;;;;;;0.00;0.00;;;;;;;;;;4988865;28;20054;-82
2023/08/28 14:36:48;;;;;;;0.00;0.00;;;;;;;;;;4983080;28;20045;-81
2023/08/28 14:39:15;;;;;;;0.00;0.00;;;;;;;;;;5000545;28;20055;-80
2023/08/28 14:41:41;;;;;;;0.00;0.00;;;;;;;;;;4968525;28;20031;-80
2023/08/28 14:44:07;;;;;;;0.00;0.00;;;;;;;;;;4984033;28;20449;-79
2023/08/28 14:46:33;;;;;;;0.00;0.00;;;;;;;;;;5002133;28;20023;-80